»·PEaware :: SWA5700 KLAX-KELP

SWA5700 :: KLAX-KELP

FLIGHT INFORMATION

Flight Status: Arrived
Operator:
Southwest Airlines
More flights by this operator :: More flights under this callsign
Pilot: Andrew M. (139)
Aircraft: BOEING 737-800
(B738)
More flights by this aircraft type
Origin: KLAX Los Angeles Intl
United States
Destination: KELP El Paso Intl
United States
More flights between these airports :: More routes between these airports
Route: +DOTSS2 CNERY BLH J50 SSO TEEES MOLLY4
File this flight plan on PilotEdge
Remarks: PBN / A1B1C1D1S1S2 NAV / RNVD1E2A1 REG / N608BT EET / KZAB0035 RMK / SIMBRIEF
Altitude:
(Current/Filed)
33,000ft
Speed:
(Current/Filed)
440kts
Departed: 28-Dec-18 08:20 PM
Arrived: 28-Dec-18 09:58 PM
Distance/Time
Traveled:
618nm/1:38
Distance/Time
To Go:
Arrived

Flight Plot

Page will automatically refresh every two minutes.

Flight plan parsing failed; only flown route is shown


Map Options




Map Legend


Flown Route
Filed Route
Departure Airport
Arrival Airport
Navaid (VOR, NDB)
Fix

Horizontal Profiles

Position Reports

Time Latitude Longitude Heading Altitude Ground
Speed
28-Dec-18 19:38 33.942354 -118.401586 262 118ft 0kts
28-Dec-18 19:39 33.942354 -118.401586 262 118ft 0kts
28-Dec-18 19:40 33.942354 -118.401586 262 118ft 0kts
28-Dec-18 19:41 33.942354 -118.401586 262 118ft 0kts
28-Dec-18 19:42 33.942354 -118.401586 262 118ft 0kts
28-Dec-18 19:43 33.942354 -118.401586 262 118ft 0kts
28-Dec-18 19:44 33.942354 -118.401586 262 118ft 0kts
28-Dec-18 19:45 33.942354 -118.401586 262 118ft 0kts
28-Dec-18 19:46 33.942354 -118.401586 262 118ft 0kts
28-Dec-18 19:47 33.942354 -118.401586 262 118ft 0kts
28-Dec-18 19:48 33.942354 -118.401586 262 118ft 0kts
28-Dec-18 19:49 33.942354 -118.401586 262 118ft 0kts
28-Dec-18 19:50 33.942354 -118.401586 262 118ft 0kts
28-Dec-18 19:51 33.942354 -118.401586 262 118ft 0kts
28-Dec-18 19:52 33.942354 -118.401586 262 118ft 0kts
28-Dec-18 19:53 33.942354 -118.401586 262 118ft 0kts
28-Dec-18 19:54 33.942354 -118.401586 262 118ft 0kts
28-Dec-18 19:55 33.942354 -118.401586 262 118ft 0kts
28-Dec-18 19:56 33.942354 -118.401586 262 118ft 0kts
28-Dec-18 19:57 33.942354 -118.401586 262 118ft 0kts
28-Dec-18 19:58 33.942354 -118.401586 262 118ft 0kts
28-Dec-18 20:00 33.942354 -118.401586 262 118ft 0kts
28-Dec-18 20:01 33.942354 -118.401586 262 118ft 0kts
28-Dec-18 20:02 33.942354 -118.401586 262 118ft 0kts
28-Dec-18 20:03 33.942354 -118.401586 262 118ft 0kts
28-Dec-18 20:04 33.942355 -118.401467 283 118ft 2kts
28-Dec-18 20:05 33.942379 -118.400971 188 117ft 1kts
28-Dec-18 20:06 33.942482 -118.400985 171 117ft 0kts
28-Dec-18 20:07 33.942482 -118.400985 171 117ft 0kts
28-Dec-18 20:08 33.942482 -118.400985 171 117ft 0kts
28-Dec-18 20:09 33.942482 -118.400985 171 117ft 0kts
28-Dec-18 20:10 33.941587 -118.400860 173 117ft 8kts
28-Dec-18 20:11 33.939285 -118.400513 170 117ft 8kts
28-Dec-18 20:12 33.939019 -118.397598 83 112ft 12kts
28-Dec-18 20:13 33.939514 -118.392935 83 106ft 15kts
28-Dec-18 20:14 33.940025 -118.387779 83 103ft 14kts
28-Dec-18 20:15 33.940516 -118.383032 83 99ft 15kts
28-Dec-18 20:16 33.940724 -118.380871 94 99ft 0kts
28-Dec-18 20:17 33.940724 -118.380871 94 99ft 0kts
28-Dec-18 20:18 33.940724 -118.380871 94 99ft 0kts
28-Dec-18 20:19 33.939863 -118.380400 242 99ft 4kts
28-Dec-18 20:19 33.938553 -118.392699 263 106ft 129kts
28-Dec-18 20:21 33.930397 -118.457467 252 1834ft 207kts
28-Dec-18 20:22 33.890753 -118.520329 227 3703ft 261kts
28-Dec-18 20:22 33.839399 -118.557300 184 5034ft 267kts
28-Dec-18 20:24 33.754465 -118.536322 166 5027ft 269kts
28-Dec-18 20:24 33.698230 -118.504636 129 6812ft 276kts
28-Dec-18 20:25 33.667090 -118.420313 106 9299ft 283kts
28-Dec-18 20:26 33.643675 -118.324910 87 10831ft 316kts
28-Dec-18 20:27 33.644512 -118.218495 81 13193ft 324kts
28-Dec-18 20:28 33.644557 -118.108338 80 15484ft 335kts
28-Dec-18 20:29 33.644482 -117.994768 79 16995ft 343kts
28-Dec-18 20:30 33.644270 -117.880792 79 17009ft 345kts
28-Dec-18 20:31 33.643958 -117.764053 78 19135ft 352kts
28-Dec-18 20:32 33.643547 -117.645813 78 21100ft 358kts
28-Dec-18 20:33 33.643120 -117.535604 78 22706ft 365kts
28-Dec-18 20:34 33.642524 -117.412700 78 24276ft 374kts
28-Dec-18 20:35 33.641753 -117.287632 79 25673ft 383kts
28-Dec-18 20:36 33.640831 -117.158513 80 26950ft 392kts
28-Dec-18 20:37 33.639694 -117.025898 81 28175ft 400kts
28-Dec-18 20:38 33.638380 -116.890926 81 29323ft 407kts
28-Dec-18 20:39 33.636808 -116.753703 82 30234ft 417kts
28-Dec-18 20:40 33.635056 -116.612585 83 31149ft 425kts
28-Dec-18 20:41 33.633071 -116.470039 84 32115ft 430kts
28-Dec-18 20:42 33.630921 -116.326974 85 32931ft 437kts
28-Dec-18 20:43 33.628535 -116.181131 85 33777ft 441kts
28-Dec-18 20:44 33.625930 -116.033782 86 34719ft 442kts
28-Dec-18 20:45 33.623154 -115.886977 86 35530ft 441kts
28-Dec-18 20:46 33.620179 -115.739096 86 36219ft 442kts
28-Dec-18 20:47 33.617031 -115.591084 86 36805ft 445kts
28-Dec-18 20:48 33.613702 -115.442037 87 37244ft 451kts
28-Dec-18 20:49 33.610138 -115.289184 88 37255ft 466kts
28-Dec-18 20:50 33.606280 -115.133590 88 37248ft 468kts
28-Dec-18 20:51 33.602171 -114.977472 88 37225ft 468kts
28-Dec-18 20:52 33.597813 -114.821097 89 37218ft 468kts
28-Dec-18 20:53 33.587999 -114.664654 94 37221ft 471kts
28-Dec-18 20:54 33.573661 -114.508888 93 37220ft 470kts
28-Dec-18 20:55 33.559444 -114.352524 93 37223ft 471kts
28-Dec-18 20:56 33.545291 -114.198285 94 37215ft 470kts
28-Dec-18 20:57 33.530783 -114.042614 94 37203ft 471kts
28-Dec-18 20:58 33.516005 -113.886252 95 37196ft 471kts
28-Dec-18 20:59 33.501078 -113.730609 95 37196ft 472kts
28-Dec-18 21:00 33.485811 -113.573461 95 37197ft 474kts
28-Dec-18 21:01 33.468865 -113.416649 102 37200ft 475kts
28-Dec-18 21:02 33.410779 -113.276366 131 37195ft 472kts
28-Dec-18 21:03 33.322695 -113.160174 134 37192ft 471kts
28-Dec-18 21:04 33.235459 -113.043852 134 37192ft 472kts
28-Dec-18 21:05 33.147652 -112.927159 135 37186ft 472kts
28-Dec-18 21:06 33.059816 -112.810807 135 37180ft 472kts
28-Dec-18 21:07 32.977699 -112.688953 120 37192ft 478kts
28-Dec-18 21:08 32.942371 -112.535574 96 37186ft 486kts
28-Dec-18 21:09 32.929265 -112.374998 97 37187ft 486kts
28-Dec-18 21:10 32.914745 -112.216989 97 37179ft 487kts
28-Dec-18 21:11 32.899877 -112.057387 97 37180ft 487kts
28-Dec-18 21:12 32.883913 -111.896316 104 37178ft 490kts
28-Dec-18 21:13 32.848659 -111.741175 108 37178ft 487kts
28-Dec-18 21:14 32.813814 -111.585279 108 37180ft 488kts
28-Dec-18 21:15 32.778821 -111.429534 108 37181ft 489kts
28-Dec-18 21:16 32.743991 -111.275341 109 37171ft 488kts
28-Dec-18 21:17 32.708548 -111.119305 109 37172ft 490kts
28-Dec-18 21:18 32.672745 -110.962749 109 37156ft 491kts
28-Dec-18 21:19 32.636799 -110.806681 110 37140ft 494kts
28-Dec-18 21:20 32.600295 -110.649274 110 37141ft 495kts
28-Dec-18 21:21 32.573475 -110.487885 102 37146ft 503kts
28-Dec-18 21:22 32.552867 -110.324841 103 37133ft 502kts
28-Dec-18 21:23 32.531818 -110.160877 104 37137ft 504kts
28-Dec-18 21:24 32.510406 -109.996417 104 37126ft 505kts
28-Dec-18 21:25 32.488741 -109.831854 104 37121ft 506kts
28-Dec-18 21:26 32.466794 -109.666872 104 37123ft 504kts
28-Dec-18 21:27 32.444724 -109.502887 104 37126ft 505kts
28-Dec-18 21:28 32.422554 -109.339587 105 37124ft 504kts
28-Dec-18 21:29 32.400199 -109.175586 105 37114ft 505kts
28-Dec-18 21:30 32.377627 -109.011815 105 37124ft 504kts
28-Dec-18 21:31 32.354839 -108.848533 105 37128ft 506kts
28-Dec-18 21:32 32.331540 -108.683500 106 37131ft 508kts
28-Dec-18 21:33 32.308118 -108.519159 106 37133ft 509kts
28-Dec-18 21:34 32.284380 -108.354273 106 37137ft 511kts
28-Dec-18 21:35 32.262824 -108.193756 104 37130ft 513kts
28-Dec-18 21:36 32.244136 -108.026381 105 37152ft 513kts
28-Dec-18 21:37 32.224512 -107.856824 106 33649ft 534kts
28-Dec-18 21:38 32.204123 -107.681057 106 29531ft 548kts
28-Dec-18 21:39 32.183751 -107.505630 106 26331ft 532kts
28-Dec-18 21:40 32.163988 -107.337250 106 23161ft 502kts
28-Dec-18 21:41 32.145735 -107.182732 106 20241ft 448kts
28-Dec-18 21:42 32.129043 -107.044699 105 17644ft 406kts
28-Dec-18 21:43 32.108222 -106.919859 112 15124ft 368kts
28-Dec-18 21:44 32.082630 -106.804835 110 12978ft 368kts
28-Dec-18 21:45 32.078763 -106.687196 87 11318ft 351kts
28-Dec-18 21:46 32.085891 -106.583222 87 10737ft 299kts
28-Dec-18 21:47 32.079877 -106.488826 97 9661ft 282kts
28-Dec-18 21:48 32.069856 -106.399225 97 8570ft 270kts
28-Dec-18 21:49 32.058795 -106.313973 98 7669ft 254kts
28-Dec-18 21:50 32.030980 -106.241097 127 6994ft 239kts
28-Dec-18 21:51 31.991246 -106.186298 129 7008ft 204kts
28-Dec-18 21:52 31.933311 -106.185993 202 7002ft 258kts
28-Dec-18 21:53 31.890117 -106.236919 254 6578ft 233kts
28-Dec-18 21:54 31.867705 -106.305397 229 5439ft 218kts
28-Dec-18 21:55 31.834065 -106.354400 233 4286ft 152kts
28-Dec-18 21:56 31.811150 -106.386475 232 3931ft 52kts
28-Dec-18 21:57 31.806533 -106.391192 200 3926ft 11kts
28-Dec-18 21:58 31.803589 -106.392455 200 3925ft 10kts
28-Dec-18 21:59 31.801616 -106.393827 214 3924ft 7kts
28-Dec-18 22:00 31.800408 -106.394576 170 3922ft 1kts
28-Dec-18 22:01 31.800364 -106.394567 170 3922ft 0kts
28-Dec-18 22:02 31.800364 -106.394567 170 3922ft 0kts
28-Dec-18 22:03 31.800364 -106.394567 170 3922ft 0kts

Navigation Log

Ident Type
Flight plan parsing failed, navigation log unavailable